Data for 07/02/2017

Time Sea-Level Adjusted Pressure Absolute Pressure Temperature Relative Humidity Dew Point   
(mb) (inHg) (mb) (inHg) (C) (F) (%) (C) (F)
00:05 1020 30.12 849 25.07 17.7 63.9 49 7.1 44.7
00:10 1020 30.12 849 25.07 17.5 63.4 50 6.9 44.5
00:15 1020 30.12 849 25.07 17.3 63.2 48 6.4 43.4
00:20 1020 30.12 849 25.07 17.5 63.5 48 6.6 43.8
00:25 1020 30.12 849 25.07 17.4 63.3 48 6.3 43.4
00:30 1020 30.12 849 25.07 17.5 63.5 48 6.4 43.5
00:35 1020 30.12 849 25.07 17.5 63.6 46 6.1 42.9
00:40 1020 30.12 849 25.07 17.9 64.1 45 5.8 42.4
00:45 1020 30.12 849 25.07 18.1 64.6 45 6.2 43.1
00:50 1020 30.12 849 25.07 17.9 64.1 47 6.5 43.7
00:55 1020 30.12 849 25.07 17.5 63.4 47 6.2 43.2
01:00 1020 30.12 849 25.07 17.5 63.4 46 5.9 42.6
01:05 1020 30.12 849 25.07 17.6 63.6 46 6 42.8
01:10 1020 30.12 849 25.07 17.5 63.5 47 6.2 43.1
01:15 1020 30.12 849 25.07 17.5 63.5 46 5.8 42.4
01:20 1020 30.12 849 25.07 17.7 63.9 46 6.1 43
01:25 1020 30.12 849 25.07 17.4 63.3 47 6.1 43
01:30 1020 30.12 849 25.07 17.3 63.2 48 6.4 43.5
01:35 1020 30.12 849 25.07 17 62.6 49 6.3 43.4
01:40 1020 30.12 849 25.07 16.8 62.2 49 6.1 43.1
01:45 1020 30.12 849 25.07 16.8 62.3 49 6.1 43
01:50 1020 30.12 849 25.07 17.1 62.8 45 5.3 41.5
01:55 1020 30.12 849 25.07 17.7 63.8 44 5.3 41.5
02:00 1020 30.12 849 25.07 17.9 64.2 43 5.3 41.6
02:05 1020 30.12 849 25.07 17.9 64.2 44 5.5 41.8
02:10 1020 30.12 849 25.07 17.8 64.1 44 5.5 41.8
02:15 1020 30.12 849 25.07 17.9 64.3 43 5.4 41.8
02:20 1020 30.12 849 25.07 18 64.4 44 5.6 42.1
02:25 1020 30.12 850 25.1 17.8 64 46 6.2 43.1
02:30 1021 30.15 850 25.1 17.5 63.5 47 6.1 43.1
02:35 1021 30.15 850 25.1 17.3 63.1 48 6.4 43.5
02:40 1021 30.15 850 25.1 17.2 62.9 47 6 42.8
02:45 1021 30.15 850 25.1 17.4 63.3 45 5.4 41.7
02:50 1021 30.15 850 25.1 17.6 63.7 46 6 42.9
02:55 1021 30.15 850 25.1 17.4 63.3 48 6.5 43.8
03:00 1021 30.15 850 25.1 16.8 62.2 51 6.7 44.1
03:05 1021 30.15 850 25.1 16.2 61.2 56 7.5 45.4
03:10 1020 30.12 850 25.1 15.8 60.5 57 7.3 45.1
03:15 1020 30.12 850 25.1 15.9 60.5 56 7.1 44.8
03:20 1020 30.12 849 25.07 15.7 60.2 56 6.9 44.4
03:25 1020 30.12 849 25.07 15.7 60.2 53 6.1 43.1
03:30 1020 30.12 849 25.07 16 60.7 51 6 42.8
03:35 1020 30.12 849 25.07 16.2 61.1 50 5.8 42.5
03:40 1020 30.12 849 25.07 16.4 61.4 49 5.7 42.2
03:45 1020 30.12 849 25.07 16.6 61.9 48 5.6 42.1
03:50 1020 30.12 849 25.07 16.6 61.9 48 5.8 42.5
03:55 1020 30.12 849 25.07 16.6 61.8 48 5.6 42.2
04:00 1020 30.12 849 25.07 16.7 62 47 5.5 41.9
04:05 1020 30.12 849 25.07 16.7 62.1 47 5.3 41.6
04:10 1020 30.12 849 25.07 16.9 62.4 46 5.3 41.6
04:15 1020 30.12 849 25.07 16.8 62.3 47 5.4 41.8
04:20 1020 30.12 849 25.07 16.7 62.1 47 5.4 41.7
04:25 1020 30.12 849 25.07 16.7 62.1 47 5.3 41.6
04:30 1020 30.12 849 25.07 16.9 62.4 45 5 41
04:35 1020 30.12 849 25.07 17 62.7 45 5.1 41.2
04:40 1020 30.12 849 25.07 17.2 63 44 4.8 40.7
04:45 1020 30.12 849 25.07 17.3 63.1 46 5.6 42
04:50 1020 30.12 849 25.07 16.8 62.2 47 5.6 42
04:55 1020 30.12 849 25.07 16.5 61.7 48 5.5 42
05:00 1020 30.12 849 25.07 16.3 61.4 50 6.1 42.9
05:05 1020 30.12 849 25.07 16.2 61.1 49 5.5 41.9
05:10 1020 30.12 850 25.1 16.6 61.8 47 5.4 41.8
05:15 1020 30.12 850 25.1 16.5 61.7 49 5.7 42.3
05:20 1020 30.12 850 25.1 16.5 61.7 47 5.1 41.2
05:25 1021 30.15 850 25.1 16.9 62.3 47 5.6 42.1
05:30 1021 30.15 850 25.1 16.7 62.1 48 5.8 42.4
05:35 1021 30.15 850 25.1 16.6 61.8 49 5.8 42.4
05:40 1021 30.15 850 25.1 16.4 61.5 49 5.9 42.6
05:45 1020 30.12 850 25.1 16.2 61.1 51 6 42.8
05:50 1020 30.12 850 25.1 16.2 61.2 52 6.3 43.4
05:55 1020 30.12 850 25.1 16 60.8 53 6.6 44
06:00 1020 30.12 850 25.1 15.7 60.2 54 6.5 43.8
06:05 1020 30.12 850 25.1 15.5 59.8 56 6.7 44.1
06:10 1020 30.12 850 25.1 15.3 59.6 54 6.3 43.3
06:15 1020 30.12 850 25.1 15.5 59.8 55 6.7 44
06:20 1020 30.12 849 25.07 15.3 59.5 54 6.1 43.1
06:25 1020 30.12 849 25.07 15.4 59.7 53 6 42.7
06:30 1020 30.12 849 25.07 15.6 60.1 52 5.8 42.4
06:35 1020 30.12 849 25.07 15.6 60.1 52 6 42.8
06:40 1020 30.12 849 25.07 15.8 60.5 50 5.6 42
06:45 1020 30.12 849 25.07 16.1 60.9 51 6 42.7
06:50 1020 30.12 849 25.07 15.9 60.7 51 6 42.8
06:55 1020 30.12 849 25.07 16 60.7 51 5.8 42.4
07:00 1020 30.12 849 25.07 16.2 61.2 49 5.7 42.2
07:05 1020 30.12 850 25.1 16.5 61.7 48 5.6 42.1
07:10 1020 30.12 850 25.1 16.8 62.2 47 5.4 41.7
07:15 1021 30.15 850 25.1 17.3 63.2 44 5.1 41.1
07:20 1021 30.15 850 25.1 18.2 64.8 42 5.1 41.2
07:25 1021 30.15 850 25.1 19.2 66.5 40 5.2 41.4
07:30 1021 30.15 850 25.1 19.4 67 41 6 42.8
07:35 1021 30.15 850 25.1 19.2 66.6 42 6.2 43.1
07:40 1021 30.15 850 25.1 19.3 66.8 43 6.4 43.6
07:45 1021 30.15 851 25.13 19.2 66.5 41 5.9 42.7
07:50 1021 30.15 850 25.1 19.1 66.4 43 6.4 43.5
07:55 1021 30.15 850 25.1 19.1 66.4 43 6.3 43.4
08:00 1021 30.15 851 25.13 18.8 65.9 45 6.8 44.3
08:05 1022 30.18 851 25.13 18.6 65.4 46 7 44.6
08:10 1022 30.18 851 25.13 18.6 65.5 48 7.6 45.7
08:15 1022 30.18 851 25.13 18 64.4 53 8.4 47.1
08:20 1021 30.15 851 25.13 17.5 63.5 54 8.2 46.8
08:25 1022 30.18 851 25.13 17.8 64 51 7.7 45.9
08:30 1022 30.18 851 25.13 18.1 64.6 50 7.5 45.5
08:35 1022 30.18 851 25.13 18.5 65.3 48 7.4 45.3
08:40 1022 30.18 851 25.13 19 66.1 45 7 44.6
08:45 1022 30.18 851 25.13 19.2 66.6 46 7.3 45.1
08:50 1022 30.18 851 25.13 19.1 66.3 46 7.4 45.3
08:55 1022 30.18 851 25.13 18.8 65.8 45 6.8 44.3
09:00 1022 30.18 851 25.13 19.1 66.4 45 7 44.5
09:05 1022 30.18 851 25.13 18.9 66 46 7.1 44.8
09:10 1022 30.18 851 25.13 19.1 66.3 45 7.1 44.8
09:15 1022 30.18 851 25.13 20.3 68.5 41 6.9 44.4
09:20 1022 30.18 851 25.13 20.6 69.1 42 7.5 45.5
09:25 1022 30.18 851 25.13 20.5 69 41 6.9 44.4
09:30 1022 30.18 851 25.13 20.7 69.3 40 6.9 44.5
09:35 1022 30.18 851 25.13 20.8 69.4 44 8.3 46.9
09:40 1022 30.18 851 25.13 20.3 68.6 45 8.1 46.6
09:45 1022 30.18 851 25.13 20.2 68.4 46 8.3 47
09:50 1022 30.18 851 25.13 20.8 69.4 44 8.1 46.6
09:55 1022 30.18 851 25.13 20.9 69.7 44 8.5 47.2
10:00 1022 30.18 851 25.13 21.2 70.2 41 7.7 45.8
10:05 1022 30.18 851 25.13 21.1 70 40 7.1 44.8
10:10 1022 30.18 851 25.13 21.1 69.9 43 8.2 46.7
10:15 1022 30.18 851 25.13 21.3 70.3 40 7.4 45.3
10:20 1021 30.15 851 25.13 21.5 70.7 41 7.7 45.9
10:25 1021 30.15 851 25.13 21.7 71.1 35 5.9 42.6
10:30 1021 30.15 851 25.13 21.9 71.4 32 4.6 40.3
10:35 1021 30.15 851 25.13 22.1 71.8 39 7.6 45.6
10:40 1021 30.15 851 25.13 21.8 71.2 36 6.1 42.9
10:45 1021 30.15 851 25.13 21.6 70.8 34 5 41
10:50 1021 30.15 851 25.13 22 71.5 35 5.9 42.7
10:55 1021 30.15 851 25.13 22 71.7 32 4.9 40.8
11:00 1021 30.15 851 25.13 21.9 71.5 34 5.4 41.8
11:05 1021 30.15 851 25.13 22.1 71.8 31 4.2 39.6
11:10 1021 30.15 851 25.13 22.6 72.6 31 4.7 40.4
11:15 1021 30.15 851 25.13 22.7 72.9 32 5.3 41.5
11:20 1021 30.15 851 25.13 22.9 73.2 30 4.7 40.5
11:25 1021 30.15 850 25.1 23.1 73.6 30 4.9 40.9
11:30 1021 30.15 851 25.13 23.4 74 30 5.1 41.1
11:35 1021 30.15 851 25.13 24.3 75.7 27 4.2 39.6
11:40 1021 30.15 851 25.13 25.3 77.6 25 4 39.2
11:45 1021 30.15 851 25.13 25.3 77.5 25 4.2 39.5
11:50 1021 30.15 850 25.1 26.1 79.1 23 3.9 39
11:55 1021 30.15 850 25.1 26.5 79.8 23 4.3 39.7
12:00 1021 30.15 850 25.1 26.5 79.7 25 5.3 41.5
12:05 1021 30.15 850 25.1 26 78.8 23 3.7 38.6
12:10 1021 30.15 850 25.1 26.5 79.6 23 4.1 39.5
12:15 1021 30.15 850 25.1 26.4 79.5 23 3.6 38.5
12:20 1021 30.15 850 25.1 26.7 80.1 22 3.6 38.5
12:25 1021 30.15 850 25.1 26.4 79.6 24 4.5 40.2
12:30 1021 30.15 850 25.1 26.6 79.8 22 3.5 38.3
12:35 1021 30.15 850 25.1 26.3 79.3 23 4 39.1
12:40 1021 30.15 850 25.1 26.6 80 22 3.3 38
12:45 1021 30.15 850 25.1 26.7 80.1 23 4.3 39.8
12:50 1021 30.15 850 25.1 27 80.6 23 4.1 39.4
12:55 1021 30.15 850 25.1 26.8 80.3 24 4.6 40.3
13:00 1021 30.15 850 25.1 27.1 80.8 21 3.1 37.6
13:05 1020 30.12 850 25.1 26.7 80 21 2.9 37.2
13:10 1020 30.12 850 25.1 27.1 80.9 18 1.3 34.3
13:15 1020 30.12 850 25.1 26.7 80 19 1.8 35.2
13:20 1020 30.12 849 25.07 27.6 81.8 19 2.6 36.6
13:25 1020 30.12 849 25.07 27.8 82.1 17 1 33.9
13:30 1020 30.12 849 25.07 27.7 81.9 19 2 35.5
13:35 1020 30.12 849 25.07 27.9 82.2 17 1.1 34
13:40 1020 30.12 849 25.07 28.2 82.7 15 -0.5 31.1
13:45 1020 30.12 849 25.07 29.3 84.7 16 0.8 33.4
13:50 1020 30.12 849 25.07 28.8 83.8 17 1.6 34.8
13:55 1020 30.12 849 25.07 28.6 83.6 17 1.7 35
14:00 1020 30.12 849 25.07 28.9 84 19 3.1 37.5
14:05 1020 30.12 849 25.07 28.9 84 19 3.5 38.4
14:10 1020 30.12 849 25.07 28.3 83 19 3.1 37.5
14:15 1020 30.12 849 25.07 29.1 84.3 19 3.2 37.8
14:20 1020 30.12 849 25.07 28.8 83.8 18 2.2 36
14:25 1020 30.12 849 25.07 29.2 84.6 17 1.9 35.4
14:30 1020 30.12 849 25.07 29.3 84.8 18 2.6 36.7
14:35 1020 30.12 849 25.07 29.1 84.4 16 1.3 34.4
14:40 1020 30.12 849 25.07 28.2 82.8 18 1.8 35.2
14:45 1020 30.12 849 25.07 28.2 82.7 18 1.7 35
14:50 1020 30.12 849 25.07 29 84.1 15 -0.1 31.9
14:55 1020 30.12 849 25.07 29.6 85.2 16 1.8 35.2
15:00 1019 30.09 849 25.07 29.1 84.5 17 2 35.6
15:05 1019 30.09 849 25.07 28.6 83.4 18 2.4 36.3
15:10 1019 30.09 849 25.07 29.8 85.6 16 1.2 34.2
15:15 1019 30.09 849 25.07 29.8 85.6 16 1.2 34.2
15:20 1019 30.09 849 25.07 29.7 85.4 15 0.8 33.4
15:25 1019 30.09 848 25.04 29.2 84.6 18 2.5 36.5
15:30 1019 30.09 848 25.04 28.9 84 17 1.5 34.8
15:35 1019 30.09 848 25.04 28.5 83.2 18 2.4 36.3
15:40 1019 30.09 848 25.04 28.4 83.1 17 1.3 34.4
15:45 1019 30.09 848 25.04 28.4 83.1 19 2.7 36.8
15:50 1019 30.09 848 25.04 28.9 84.1 17 1.9 35.3
15:55 1019 30.09 848 25.04 29.1 84.4 19 3.3 38
16:00 1019 30.09 848 25.04 29.7 85.4 17 2.1 35.8
16:05 1019 30.09 848 25.04 29.2 84.5 17 1.9 35.4
16:10 1019 30.09 848 25.04 28.9 84 17 1.9 35.3
16:15 1019 30.09 848 25.04 29.3 84.8 16 1.4 34.5
16:20 1019 30.09 848 25.04 30.1 86.1 16 2.1 35.8
16:25 1019 30.09 848 25.04 29.9 85.7 17 2.5 36.4
16:30 1019 30.09 848 25.04 29.3 84.7 17 2.2 36
16:35 1019 30.09 848 25.04 30.3 86.6 15 1 33.8
16:40 1019 30.09 848 25.04 30.8 87.4 15 1.9 35.5
16:45 1019 30.09 848 25.04 30.4 86.8 17 3.4 38
16:50 1019 30.09 848 25.04 29.9 85.8 17 2.5 36.5
16:55 1019 30.09 848 25.04 30.3 86.5 15 1.3 34.4
17:00 1019 30.09 848 25.04 30.6 87 15 1 33.8
17:05 1019 30.09 848 25.04 30.2 86.4 16 2.3 36.1
17:10 1019 30.09 848 25.04 30.4 86.7 14 0.7 33.3
17:15 1019 30.09 848 25.04 31.2 88.1 13 0.4 32.7
17:20 1019 30.09 848 25.04 30.9 87.6 14 0.4 32.8
17:25 1019 30.09 848 25.04 31 87.9 14 0.3 32.6
17:30 1019 30.09 848 25.04 30.9 87.7 15 1.8 35.2
17:35 1019 30.09 848 25.04 30.9 87.5 14 0.9 33.6
17:40 1019 30.09 848 25.04 30.9 87.6 15 1.4 34.6
17:45 1019 30.09 848 25.04 29.8 85.7 21 5.8 42.4
17:50 1019 30.09 848 25.04 26.4 79.6 24 4.6 40.3
17:55 1019 30.09 848 25.04 25.7 78.2 25 4.3 39.8
18:00 1019 30.09 848 25.04 25.3 77.6 24 3.9 39
18:05 1019 30.09 848 25.04 26.1 79 24 4 39.2
18:10 1019 30.09 848 25.04 26.8 80.2 22 3.7 38.7
18:15 1019 30.09 848 25.04 26.4 79.4 23 4 39.2
18:20 1019 30.09 848 25.04 26.1 79 24 3.9 39.1
18:25 1019 30.09 848 25.04 26.1 79.1 25 4.8 40.7
18:30 1019 30.09 848 25.04 25.9 78.6 24 4.1 39.3
18:35 1019 30.09 848 25.04 25.9 78.6 24 3.8 38.8
18:40 1019 30.09 848 25.04 25.9 78.5 24 3.9 39
18:45 1019 30.09 848 25.04 25.8 78.5 25 4.7 40.4
18:50 1019 30.09 848 25.04 25.5 77.8 26 5 40.9
18:55 1019 30.09 848 25.04 25.2 77.4 26 4.4 39.9
19:00 1019 30.09 848 25.04 25.1 77.2 25 4.2 39.5
19:05 1019 30.09 848 25.04 24.9 76.9 28 5.5 41.9
19:10 1019 30.09 849 25.07 24.9 76.9 28 5.7 42.2
19:15 1020 30.12 849 25.07 24.9 76.7 28 5.2 41.4
19:20 1020 30.12 849 25.07 24.3 75.8 32 6.8 44.3
19:25 1020 30.12 849 25.07 23.4 74 33 6.5 43.7
19:30 1020 30.12 849 25.07 22.8 73.1 34 6.3 43.4
19:35 1020 30.12 849 25.07 22.3 72.1 34 5.8 42.4
19:40 1020 30.12 849 25.07 22.1 71.8 34 5.7 42.2
19:45 1020 30.12 850 25.1 21.8 71.2 34 5.4 41.8
19:50 1020 30.12 850 25.1 21.8 71.3 35 6 42.8
19:55 1021 30.15 850 25.1 21.6 70.9 40 7.4 45.4
20:00 1020 30.12 850 25.1 21.1 70 39 6.7 44.1
20:05 1021 30.15 850 25.1 20.8 69.5 43 7.8 46
20:10 1020 30.12 850 25.1 19.9 67.8 55 10.7 51.3
20:15 1020 30.12 850 25.1 18.7 65.6 55 9.5 49.1
20:20 1020 30.12 850 25.1 19.2 66.6 45 7.1 44.8
20:25 1020 30.12 850 25.1 20 68.1 41 6.5 43.6
20:30 1020 30.12 849 25.07 19.7 67.5 42 6.5 43.7
20:35 1019 30.09 848 25.04 20.2 68.4 41 6.7 44
20:40 1019 30.09 848 25.04 20.4 68.8 37 5.4 41.7
20:45 1019 30.09 848 25.04 21 69.8 34 4.6 40.3
20:50 1019 30.09 849 25.07 21.2 70.2 34 4.8 40.7
20:55 1019 30.09 849 25.07 21.4 70.5 33 4.5 40
21:00 1019 30.09 849 25.07 21.6 70.8 34 5.4 41.8
21:05 1019 30.09 849 25.07 21.1 69.9 37 6.1 43
21:10 1019 30.09 849 25.07 20.6 69.1 39 6.3 43.3
21:15 1020 30.12 849 25.07 20.2 68.3 41 6.7 44
21:20 1020 30.12 849 25.07 19.9 67.9 40 6.2 43.2
21:25 1020 30.12 849 25.07 19.9 67.8 40 6.2 43.1
21:30 1020 30.12 849 25.07 20 68 38 5.6 42
21:35 1020 30.12 849 25.07 20.2 68.3 38 5.6 42.2
21:40 1020 30.12 849 25.07 20.5 69 34 4.3 39.7
21:45 1020 30.12 849 25.07 21 69.7 34 4.8 40.6
21:50 1020 30.12 849 25.07 20.6 69.1 35 4.8 40.6
21:55 1020 30.12 849 25.07 20.6 69 36 5.1 41.2
22:00 1020 30.12 849 25.07 20.5 68.9 36 5.1 41.2
22:05 1020 30.12 849 25.07 20.3 68.5 39 6 42.8
22:10 1020 30.12 849 25.07 19.8 67.6 41 6.3 43.3
22:15 1020 30.12 849 25.07 19.5 67.2 42 6.4 43.4
22:20 1020 30.12 849 25.07 19.3 66.7 42 6.2 43.1
22:25 1020 30.12 849 25.07 19.5 67 41 6 42.7
22:30 1020 30.12 849 25.07 19.5 67 42 6.3 43.3
22:35 1020 30.12 849 25.07 19.3 66.7 42 6.1 43
22:40 1020 30.12 849 25.07 19.2 66.6 42 6.2 43.2
22:45 1020 30.12 849 25.07 19 66.2 43 6.3 43.4
22:50 1020 30.12 849 25.07 18.6 65.6 44 6.4 43.5
22:55 1020 30.12 849 25.07 18.4 65.1 45 6.5 43.7
23:00 1020 30.12 849 25.07 18.2 64.7 46 6.4 43.5
23:05 1020 30.12 849 25.07 18.2 64.8 45 6.1 42.9
23:10 1020 30.12 849 25.07 18.2 64.8 44 5.8 42.4
23:15 1020 30.12 849 25.07 18.1 64.6 46 6.3 43.3
23:20 1020 30.12 849 25.07 17.7 63.8 46 5.9 42.7
23:25 1020 30.12 849 25.07 17.6 63.7 45 5.7 42.3
23:30 1020 30.12 849 25.07 17.8 64 44 5.4 41.8
23:35 1020 30.12 849 25.07 17.8 64.1 44 5.6 42
23:40 1020 30.12 849 25.07 17.7 63.9 45 5.6 42.1
23:45 1020 30.12 849 25.07 17.6 63.8 44 5.3 41.5
23:50 1020 30.12 849 25.07 17.8 64 44 5.4 41.7
23:55 1020 30.12 849 25.07 17.7 63.9 44 5.6 42.1
24:00 1020 30.12 849 25.07 17.6 63.7 45 5.7 42.3